Погода Фойнана неделю

Могилёвская область, Белоруссия

24 - 30 июля
  • 24июля
    Сегодня
    +14°
    +25°
    Небольшая облачность
    ВремяПогодаТемператураВлажностьДавлениеВетер, м/сВероятность осадков
    00:00Ясно и безоблачно+17°C84 %743 мм2.3 м/с2 %
    03:00Ясно и безоблачно+16°C83 %743 мм2.0 м/с2 %
    06:00Ясно и безоблачно+15°C87 %743 мм1.3 м/с2 %
    09:00Ясно и безоблачно+20°C76 %743 мм2.2 м/с2 %
    12:00Практически безоблачно+24°C57 %743 мм1.7 м/с7 %
    15:00Небольшая облачность+24°C53 %742 мм2.3 м/с17 %
    18:00Практически безоблачно+24°C59 %742 мм2.5 м/с16 %
    21:00Практически безоблачно+22°C72 %741 мм1.0 м/с2 %
  • 25июля
    Четверг
    +16°
    +26°
    Облачно с прояснениями
    ВремяПогодаТемператураВлажностьДавлениеВетер, м/сВероятность осадков
    00:00Практически безоблачно+18°C82 %741 мм1.6 м/с2 %
    03:00Ясно и безоблачно+15°C89 %741 мм1.9 м/с2 %
    06:00Ясно и безоблачно+15°C90 %741 мм1.8 м/с2 %
    09:00Ясно и безоблачно+21°C62 %741 мм1.5 м/с2 %
    12:00Небольшая облачность+25°C41 %741 мм2.4 м/с2 %
    15:00Облачно с прояснениями+25°C39 %740 мм1.8 м/с2 %
    18:00Облачно с прояснениями+25°C43 %740 мм1.3 м/с2 %
    21:00Ясно и безоблачно+21°C66 %740 мм1.9 м/с2 %
  • 26июля
    Пятница
    +15°
    +27°
    Ясно и безоблачно
    ВремяПогодаТемператураВлажностьДавлениеВетер, м/сВероятность осадков
    00:00Пасмурно, сплошная облачность+19°C63 %740 мм1.9 м/с2 %
    03:00Облачно с прояснениями+18°C64 %741 мм2.2 м/с2 %
    06:00Небольшая облачность+16°C74 %741 мм1.4 м/с2 %
    09:00Пасмурно, сплошная облачность+21°C65 %742 мм1.9 м/с2 %
    12:00Практически безоблачно+25°C49 %742 мм2.0 м/с4 %
    15:00Ясно и безоблачно+26°C40 %743 мм0.6 м/с13 %
    18:00Ясно и безоблачно+27°C44 %743 мм1.3 м/с12 %
    21:00Ясно и безоблачно+22°C66 %743 мм1.9 м/с6 %
  • 27июля
    Суббота
    +16°
    +28°
    Практически безоблачно
    ВремяПогодаТемператураВлажностьДавлениеВетер, м/сВероятность осадков
    00:00Ясно и безоблачно+18°C84 %744 мм1.9 м/с2 %
    03:00Ясно и безоблачно+16°C90 %744 мм1.9 м/с2 %
    06:00Небольшая облачность+16°C92 %745 мм1.3 м/с4 %
    09:00Ясно и безоблачно+22°C67 %746 мм1.2 м/с4 %
    12:00Практически безоблачно+26°C48 %746 мм1.6 м/с3 %
    15:00Практически безоблачно+27°C42 %746 мм1.9 м/с21 %
    18:00Облачно с прояснениями+26°C41 %746 мм2.1 м/с40 %
    21:00Ясно и безоблачно+24°C62 %746 мм1.4 м/с12 %
  • 28июля
    Воскресенье
    +16°
    +28°
    Облачно с прояснениями
    ВремяПогодаТемператураВлажностьДавлениеВетер, м/сВероятность осадков
    00:00Ясно и безоблачно+18°C75 %746 мм1.8 м/с2 %
    03:00Облачно с прояснениями+17°C82 %746 мм1.9 м/с2 %
    06:00Небольшая облачность+17°C80 %746 мм1.9 м/с2 %
    09:00Облачно с прояснениями+22°C67 %746 мм2.3 м/с2 %
    12:00Облачно с прояснениями+26°C58 %746 мм4.2 м/с14 %
    15:00Облачно с прояснениями+28°C47 %745 мм4.5 м/с26 %
    18:00Облачно с прояснениями+26°C44 %744 мм3.6 м/с25 %
    21:00Ясно и безоблачно+23°C56 %743 мм2.6 м/с31 %
Мы используем cookies
Соглашаюсь